Time;durP1;ratioP1;P1;durP2;ratioP2;P2;SDS_P1;SDS_P2;PMS_P1;PMS_P2;Temp;Humidity;BMP_temperature;BMP_pressure;BME280_temperature;BME280_humidity;BME280_pressure;Samples;Min_cycle;Max_cycle;Signal;HPM_P1;HPM_P2
2022/04/18 00:01:20;;;;;;;;;;;;;;;15.66;29.67;102122.03;5052739;28;19909;-76
2022/04/18 00:03:45;;;;;;;;;;;;;;;15.56;29.53;102124.47;5050729;28;19963;-75
2022/04/18 00:06:10;;;;;;;;;;;;;;;15.60;29.54;102122.97;5050902;28;19986;-76
2022/04/18 00:08:36;;;;;;;;;;;;;;;15.60;29.52;102127.56;5052897;28;19991;-76
2022/04/18 00:11:01;;;;;;;;;;;;;;;15.47;29.54;102119.56;5051731;28;19951;-75
2022/04/18 00:13:26;;;;;;;;;;;;;;;15.47;29.78;102122.28;5053399;28;19941;-76
2022/04/18 00:15:51;;;;;;;;;;;;;;;15.39;29.72;102117.16;5052895;28;19916;-75
2022/04/18 00:18:17;;;;;;;;;;;;;;;15.35;30.26;102121.34;5051177;28;19927;-75
2022/04/18 00:20:42;;;;;;;;;;;;;;;15.28;30.37;102113.28;5052600;28;20269;-75
2022/04/18 00:23:07;;;;;;;;;;;;;;;15.29;30.93;102116.84;5052897;28;19917;-75
2022/04/18 00:25:32;;;;;;;;;;;;;;;15.19;31.01;102111.13;5052716;28;19968;-76
2022/04/18 00:27:58;;;;;;;;;;;;;;;15.14;30.80;102105.53;5052822;28;19952;-76
2022/04/18 00:30:23;;;;;;;;;;;;;;;15.09;31.00;102118.91;5051919;28;19920;-74
2022/04/18 00:32:49;;;;;;;;;;;;;;;15.06;30.55;102114.78;5052347;28;19921;-78
2022/04/18 00:35:14;;;;;;;;;;;;;;;15.16;30.71;102119.66;5052556;28;20025;-77
2022/04/18 00:37:40;;;;;;;;;;;;;;;15.06;30.76;102111.22;5052858;28;19951;-76
2022/04/18 00:40:06;;;;;;;;;;;;;;;14.96;31.23;102106.34;5052798;28;19956;-75
2022/04/18 00:42:32;;;;;;;;;;;;;;;14.95;30.70;102104.69;5052061;28;19917;-76
2022/04/18 00:44:57;;;;;;;;;;;;;;;15.01;30.44;102106.50;5052097;28;20384;-76
2022/04/18 00:47:22;;;;;;;;;;;;;;;14.95;30.47;102107.41;5052346;28;19912;-75
2022/04/18 00:49:48;;;;;;;;;;;;;;;15.02;30.74;102110.84;5052790;28;19971;-77
2022/04/18 00:52:13;;;;;;;;;;;;;;;15.00;30.79;102102.13;5050750;28;20414;-76
2022/04/18 00:54:41;;;;;;;;;;;;;;;15.01;31.38;102101.09;5052400;28;19916;-76
2022/04/18 00:57:06;;;;;;;;;;;;;;;15.06;30.51;102100.41;5056073;28;19920;-75
2022/04/18 00:59:32;;;;;;;;;;;;;;;15.00;31.12;102101.31;5054850;28;19917;-76
2022/04/18 01:01:57;;;;;;;;;;;;;;;14.95;30.88;102100.13;5056157;28;19913;-75
2022/04/18 01:04:23;;;;;;;;;;;;;;;14.98;31.19;102106.13;5056204;28;19921;-75
2022/04/18 01:06:48;;;;;;;;;;;;;;;14.99;30.83;102100.47;5055835;28;19925;-75
2022/04/18 01:09:14;;;;;;;;;;;;;;;14.93;30.63;102099.50;5055826;28;20304;-77
2022/04/18 01:11:39;;;;;;;;;;;;;;;14.93;30.78;102101.38;5056492;28;19931;-75
2022/04/18 01:14:04;;;;;;;;;;;;;;;14.88;30.89;102103.91;5055990;28;19992;-75
2022/04/18 01:16:30;;;;;;;;;;;;;;;14.84;31.27;102103.53;5056136;28;19996;-75
2022/04/18 01:18:57;;;;;;;;;;;;;;;14.88;31.43;102101.19;5055883;28;19919;-75
2022/04/18 01:21:22;;;;;;;;;;;;;;;14.90;30.36;102099.94;5055519;28;19951;-77
2022/04/18 01:23:48;;;;;;;;;;;;;;;14.92;30.98;102100.53;5055401;28;20365;-76
2022/04/18 01:29:00;;;;;;;;;;;;;;;14.94;31.52;102101.16;5055690;28;20012;-76
2022/04/18 01:31:27;;;;;;;;;;;;;;;15.04;30.99;102094.38;5078408;28;19909;-76
2022/04/18 01:33:52;;;;;;;;;;;;;;;14.69;31.71;102103.06;5053858;28;19956;-77
2022/04/18 01:36:17;;;;;;;;;;;;;;;14.70;31.69;102093.88;5055220;28;20407;-76
2022/04/18 01:38:42;;;;;;;;;;;;;;;14.95;31.24;102094.69;5055401;28;19951;-76
2022/04/18 01:41:08;;;;;;;;;;;;;;;14.69;31.56;102092.22;5055410;28;19944;-76
2022/04/18 01:43:33;;;;;;;;;;;;;;;14.81;30.77;102087.75;5056091;28;19916;-76
2022/04/18 01:45:58;;;;;;;;;;;;;;;14.82;31.63;102093.97;5055102;28;20494;-75
2022/04/18 01:48:23;;;;;;;;;;;;;;;14.81;31.15;102089.63;5053315;28;19963;-75
2022/04/18 01:50:49;;;;;;;;;;;;;;;14.64;31.79;102088.53;5054810;28;20288;-75
2022/04/18 01:53:14;;;;;;;;;;;;;;;14.50;31.78;102087.81;5054794;28;19912;-77
2022/04/18 01:55:40;;;;;;;;;;;;;;;14.60;31.27;102087.31;5055046;28;19912;-75
2022/04/18 01:58:05;;;;;;;;;;;;;;;14.55;31.50;102085.28;5054487;28;20026;-76
2022/04/18 02:00:32;;;;;;;;;;;;;;;14.53;31.68;102081.13;5054450;28;20007;-77
2022/04/18 02:02:57;;;;;;;;;;;;;;;14.57;31.03;102080.47;5054494;28;20000;-74
2022/04/18 02:05:22;;;;;;;;;;;;;;;14.39;32.14;102071.44;5055117;28;19956;-76
2022/04/18 02:07:47;;;;;;;;;;;;;;;14.58;31.78;102073.19;5054415;28;19912;-75
2022/04/18 02:10:13;;;;;;;;;;;;;;;14.54;31.77;102072.81;5057075;28;19966;-75
2022/04/18 02:12:38;;;;;;;;;;;;;;;14.51;31.37;102064.28;5055075;28;20015;-76
2022/04/18 02:15:03;;;;;;;;;;;;;;;14.40;31.25;102068.56;5055072;28;20277;-75
2022/04/18 02:17:29;;;;;;;;;;;;;;;14.47;31.39;102065.78;5054305;28;19923;-77
2022/04/18 02:19:55;;;;;;;;;;;;;;;14.45;31.82;102057.06;5054801;28;19938;-75
2022/04/18 02:22:23;;;;;;;;;;;;;;;14.10;32.60;102065.63;5055351;28;20387;-76
2022/04/18 02:24:49;;;;;;;;;;;;;;;14.18;32.47;102063.69;5055003;28;20383;-76
2022/04/18 02:27:14;;;;;;;;;;;;;;;14.16;31.74;102063.06;5055009;28;19944;-76
2022/04/18 02:29:40;;;;;;;;;;;;;;;14.20;32.50;102059.72;5055042;28;20292;-76
2022/04/18 02:34:50;;;;;;;;;;;;;;;14.01;32.29;102052.59;5055311;28;20020;-77
2022/04/18 02:37:15;;;;;;;;;;;;;;;13.98;32.63;102051.16;5054331;28;20007;-79
2022/04/18 02:39:40;;;;;;;;;;;;;;;13.90;32.76;102054.09;5054635;28;19917;-76
2022/04/18 02:42:05;;;;;;;;;;;;;;;13.87;32.08;102051.84;5054770;28;20387;-77
2022/04/18 02:44:31;;;;;;;;;;;;;;;13.87;32.88;102057.25;5054584;28;19940;-75
2022/04/18 02:46:56;;;;;;;;;;;;;;;13.91;32.61;102053.06;5054486;28;19982;-77
2022/04/18 02:49:21;;;;;;;;;;;;;;;13.83;32.66;102047.91;5054748;28;19919;-77
2022/04/18 02:51:47;;;;;;;;;;;;;;;13.77;33.26;102046.09;5054289;28;19916;-76
2022/04/18 02:54:12;;;;;;;;;;;;;;;13.91;32.57;102039.56;5052726;28;19992;-75
2022/04/18 02:56:37;;;;;;;;;;;;;;;13.93;32.41;102034.78;5054068;28;19920;-75
2022/04/18 02:59:02;;;;;;;;;;;;;;;13.83;32.22;102038.97;5052828;28;20011;-77
2022/04/18 03:01:28;;;;;;;;;;;;;;;14.12;31.36;102035.66;5054275;28;19966;-75
2022/04/18 03:03:53;;;;;;;;;;;;;;;13.97;32.32;102033.25;5053946;28;20019;-77
2022/04/18 03:06:18;;;;;;;;;;;;;;;13.82;31.69;102031.91;5054778;28;20284;-76
2022/04/18 03:08:44;;;;;;;;;;;;;;;14.04;31.46;102036.75;5053928;28;19974;-76
2022/04/18 03:11:10;;;;;;;;;;;;;;;14.14;31.72;102028.16;5053894;28;19999;-77
2022/04/18 03:13:36;;;;;;;;;;;;;;;14.02;31.82;102029.91;5052333;28;19915;-75
2022/04/18 03:16:02;;;;;;;;;;;;;;;13.91;32.00;102025.22;5085987;28;19916;-76
2022/04/18 03:18:27;;;;;;;;;;;;;;;13.99;31.42;102022.25;5053623;28;19917;-76
2022/04/18 03:20:53;;;;;;;;;;;;;;;14.07;30.99;102020.09;5053741;28;19920;-77
2022/04/18 03:23:18;;;;;;;;;;;;;;;14.02;31.48;102025.34;5053766;28;19935;-76
2022/04/18 03:25:43;;;;;;;;;;;;;;;14.07;30.64;102025.50;5052285;28;19970;-76
2022/04/18 03:28:09;;;;;;;;;;;;;;;14.00;30.80;102023.88;5053635;28;19913;-76
2022/04/18 03:30:34;;;;;;;;;;;;;;;13.96;30.73;102020.81;5054019;28;19917;-75
2022/04/18 03:32:59;;;;;;;;;;;;;;;14.13;30.70;102020.28;5053914;28;19921;-77
2022/04/18 03:35:25;;;;;;;;;;;;;;;13.96;30.89;102028.91;5054450;28;19940;-75
2022/04/18 03:40:34;;;;;;;;;;;;;;;13.72;31.57;102026.19;5053558;28;19943;-76
2022/04/18 03:42:59;;;;;;;;;;;;;;;13.59;31.55;102016.25;5053631;28;19916;-75
2022/04/18 03:45:24;;;;;;;;;;;;;;;13.68;31.68;102019.56;5053441;28;20320;-75
2022/04/18 03:47:50;;;;;;;;;;;;;;;13.53;32.19;102019.00;5053171;28;19913;-75
2022/04/18 03:50:15;;;;;;;;;;;;;;;13.51;32.11;102023.78;5053292;28;20315;-75
2022/04/18 03:52:40;;;;;;;;;;;;;;;13.50;32.19;102024.84;5051953;28;19932;-76
2022/04/18 03:55:06;;;;;;;;;;;;;;;13.42;31.95;102017.81;5053258;28;19957;-74
2022/04/18 03:57:31;;;;;;;;;;;;;;;13.46;32.52;102026.31;5052953;28;19995;-75
2022/04/18 03:59:56;;;;;;;;;;;;;;;13.48;32.74;102021.53;5051428;28;19917;-76
2022/04/18 04:02:21;;;;;;;;;;;;;;;13.37;32.20;102016.78;5052902;28;19923;-76
2022/04/18 04:04:47;;;;;;;;;;;;;;;13.35;31.80;102014.28;5051831;28;19916;-75
2022/04/18 04:07:12;;;;;;;;;;;;;;;13.44;31.79;102012.19;5052894;28;19912;-76
2022/04/18 04:09:38;;;;;;;;;;;;;;;13.57;31.37;102002.16;5052844;28;19935;-76
2022/04/18 04:12:03;;;;;;;;;;;;;;;13.59;31.47;102010.88;5085123;28;19948;-75
2022/04/18 04:14:29;;;;;;;;;;;;;;;13.63;31.40;102012.09;5052731;28;19917;-74
2022/04/18 04:16:54;;;;;;;;;;;;;;;13.61;31.15;102005.22;5051858;28;19920;-73
2022/04/18 04:19:19;;;;;;;;;;;;;;;13.52;30.96;102011.94;5038087;28;20008;-75
2022/04/18 04:21:45;;;;;;;;;;;;;;;13.72;31.30;101999.97;5048956;28;19917;-74
2022/04/18 04:24:10;;;;;;;;;;;;;;;13.56;30.91;101997.78;5052452;28;20262;-75
2022/04/18 04:26:35;;;;;;;;;;;;;;;13.67;30.85;102004.38;5052219;28;19916;-75
2022/04/18 04:29:02;;;;;;;;;;;;;;;13.64;31.14;102002.91;5052190;28;19923;-75
2022/04/18 04:31:28;;;;;;;;;;;;;;;13.56;31.15;102002.38;5052644;28;19909;-75
2022/04/18 04:33:53;;;;;;;;;;;;;;;13.62;30.46;102009.59;5052308;28;19925;-75
2022/04/18 04:36:18;;;;;;;;;;;;;;;13.67;30.53;102005.22;5052740;28;19917;-77
2022/04/18 04:38:43;;;;;;;;;;;;;;;13.49;31.28;102005.09;5052854;28;19962;-75
2022/04/18 04:41:09;;;;;;;;;;;;;;;13.71;30.84;101998.31;5052811;28;19944;-74
2022/04/18 04:43:34;;;;;;;;;;;;;;;13.69;30.74;102000.41;5053395;28;19912;-77
2022/04/18 04:46:02;;;;;;;;;;;;;;;13.41;31.44;102012.59;5052407;28;19917;-75
2022/04/18 04:48:27;;;;;;;;;;;;;;;13.56;31.14;102011.28;5052198;28;20284;-75
2022/04/18 04:50:53;;;;;;;;;;;;;;;13.08;31.49;102008.19;5052645;28;20194;-74
2022/04/18 04:53:18;;;;;;;;;;;;;;;13.22;31.33;102017.06;5052822;28;19936;-76
2022/04/18 04:55:43;;;;;;;;;;;;;;;13.45;30.84;102011.97;5053041;28;19916;-76
2022/04/18 04:58:09;;;;;;;;;;;;;;;13.53;31.07;102010.88;5053049;28;20365;-75
2022/04/18 05:00:35;;;;;;;;;;;;;;;13.47;31.16;102017.97;5052636;28;19927;-76
2022/04/18 05:03:00;;;;;;;;;;;;;;;13.81;30.63;102011.34;5052510;28;20265;-77
2022/04/18 05:05:25;;;;;;;;;;;;;;;13.71;30.59;102022.63;5052261;28;19924;-75
2022/04/18 05:07:51;;;;;;;;;;;;;;;13.23;31.31;102019.53;5053068;28;19912;-75
2022/04/18 05:10:16;;;;;;;;;;;;;;;13.41;31.16;102020.72;5084379;28;19917;-76
2022/04/18 05:12:42;;;;;;;;;;;;;;;13.57;30.78;102017.50;5052167;28;20328;-76
2022/04/18 05:15:07;;;;;;;;;;;;;;;13.58;30.82;102021.88;5052164;28;19916;-76
2022/04/18 05:17:33;;;;;;;;;;;;;;;13.64;30.71;102012.91;5051936;28;20372;-75
2022/04/18 05:19:58;;;;;;;;;;;;;;;13.83;30.98;102017.38;5052277;28;20015;-75
2022/04/18 05:22:24;;;;;;;;;;;;;;;13.74;30.86;102018.66;5052740;28;19909;-76
2022/04/18 05:24:49;;;;;;;;;;;;;;;13.47;31.52;102012.59;5052561;28;19920;-76
2022/04/18 05:27:15;;;;;;;;;;;;;;;13.65;30.77;102014.56;5050784;28;19920;-74
2022/04/18 05:29:41;;;;;;;;;;;;;;;13.81;30.75;102011.34;5051736;28;20253;-75
2022/04/18 05:32:06;;;;;;;;;;;;;;;13.38;30.72;102018.44;5051843;28;20395;-77
2022/04/18 05:34:32;;;;;;;;;;;;;;;13.52;31.30;102012.75;5052525;28;19963;-76
2022/04/18 05:36:57;;;;;;;;;;;;;;;13.80;30.44;102015.91;5051467;28;19928;-74
2022/04/18 05:39:22;;;;;;;;;;;;;;;13.03;31.61;102021.47;5052240;28;19919;-73
2022/04/18 05:41:47;;;;;;;;;;;;;;;13.47;31.42;102017.97;5052046;28;20003;-76
2022/04/18 05:44:13;;;;;;;;;;;;;;;13.66;30.58;102025.13;5055051;28;19920;-76
2022/04/18 05:46:38;;;;;;;;;;;;;;;13.99;30.32;102024.97;5055456;28;19956;-74
2022/04/18 05:49:03;;;;;;;;;;;;;;;13.65;30.92;102011.88;5055436;28;19966;-76
2022/04/18 05:51:28;;;;;;;;;;;;;;;13.81;30.35;102011.34;5055061;28;19931;-74
2022/04/18 05:53:54;;;;;;;;;;;;;;;14.05;29.97;102018.69;5055795;28;20619;-76
2022/04/18 05:56:19;;;;;;;;;;;;;;;14.33;29.70;102015.56;5052987;28;19917;-75
2022/04/18 05:58:44;;;;;;;;;;;;;;;14.14;30.15;102017.34;5056018;28;20419;-78
2022/04/18 06:01:10;;;;;;;;;;;;;;;14.32;29.88;102008.50;5054631;28;19923;-75
2022/04/18 06:03:35;;;;;;;;;;;;;;;14.51;29.58;102015.59;5054486;28;19917;-75
2022/04/18 06:06:00;;;;;;;;;;;;;;;14.68;29.12;102014.81;5053560;28;20545;-74
2022/04/18 06:08:25;;;;;;;;;;;;;;;14.54;29.28;102012.47;5053598;28;19912;-74
2022/04/18 06:10:51;;;;;;;;;;;;;;;14.59;29.22;102018.03;5053435;28;19917;-78
2022/04/18 06:13:18;;;;;;;;;;;;;;;14.90;28.91;102024.16;5051902;28;19951;-75
2022/04/18 06:15:44;;;;;;;;;;;;;;;15.05;28.58;102023.78;5053360;28;19916;-75
2022/04/18 06:18:09;;;;;;;;;;;;;;;15.00;28.90;102025.53;5053243;28;19928;-76
2022/04/18 06:20:34;;;;;;;;;;;;;;;14.49;29.10;102026.66;5051901;28;19966;-76
2022/04/18 06:23:00;;;;;;;;;;;;;;;15.06;28.61;102022.72;5052741;28;19948;-76
2022/04/18 06:25:25;;;;;;;;;;;;;;;15.21;28.76;102017.78;5054005;28;19916;-74
2022/04/18 06:27:50;;;;;;;;;;;;;;;15.16;28.83;102016.78;5053313;28;20479;-74
2022/04/18 06:30:16;;;;;;;;;;;;;;;15.29;28.57;102020.16;5053022;28;20365;-74
2022/04/18 06:32:41;;;;;;;;;;;;;;;15.10;28.73;102018.50;5052007;28;19921;-75
2022/04/18 06:35:06;;;;;;;;;;;;;;;15.09;29.32;102026.88;5053154;28;19919;-76
2022/04/18 06:37:32;;;;;;;;;;;;;;;14.90;29.55;102026.03;5054720;28;19913;-76
2022/04/18 06:39:57;;;;;;;;;;;;;;;14.45;30.52;102025.44;5054077;28;20296;-77
2022/04/18 06:42:23;;;;;;;;;;;;;;;15.17;29.36;102030.13;5054206;28;20430;-76
2022/04/18 06:44:48;;;;;;;;;;;;;;;15.30;29.39;102019.09;5054729;28;20012;-74
2022/04/18 06:47:13;;;;;;;;;;;;;;;15.15;29.48;102025.97;5054135;28;24036;-74
2022/04/18 06:49:39;;;;;;;;;;;;;;;15.66;28.81;102027.19;5057395;28;19955;-75
2022/04/18 06:52:04;;;;;;;;;;;;;;;15.89;29.18;102018.31;5052718;28;20477;-75
2022/04/18 06:54:30;;;;;;;;;;;;;;;15.24;29.93;102022.72;5052052;28;19913;-74
2022/04/18 06:57:01;;;;;;;;;;;;;;;15.66;29.25;102023.66;5054156;28;20007;-75
2022/04/18 06:59:27;;;;;;;;;;;;;;;15.76;29.44;102019.31;5053984;28;19920;-74
2022/04/18 07:01:53;;;;;;;;;;;;;;;16.10;29.29;102020.50;5054847;28;19995;-72
2022/04/18 07:04:19;;;;;;;;;;;;;;;16.16;29.24;102016.84;5053922;28;19919;-76
2022/04/18 07:06:44;;;;;;;;;;;;;;;16.14;30.11;102012.69;5054549;28;19917;-73
2022/04/18 07:09:09;;;;;;;;;;;;;;;16.50;29.20;102002.53;5054446;28;19963;-75
2022/04/18 07:11:35;;;;;;;;;;;;;;;16.08;30.01;102005.53;5054204;28;19920;-74
2022/04/18 07:14:00;;;;;;;;;;;;;;;15.73;31.15;102005.41;5054096;28;19955;-74
2022/04/18 07:16:29;;;;;;;;;;;;;;;16.59;29.78;102006.53;5054320;28;19912;-75
2022/04/18 07:18:55;;;;;;;;;;;;;;;16.84;29.48;102013.59;5053409;28;19984;-73
2022/04/18 07:21:20;;;;;;;;;;;;;;;16.12;30.24;102014.81;5053454;28;19927;-75
2022/04/18 07:23:45;;;;;;;;;;;;;;;16.92;29.46;102014.06;5053510;28;19917;-75
2022/04/18 07:26:11;;;;;;;;;;;;;;;16.79;29.70;102018.91;5052876;28;19920;-74
2022/04/18 07:28:38;;;;;;;;;;;;;;;16.56;29.94;102019.75;5053602;28;19939;-74
2022/04/18 07:31:04;;;;;;;;;;;;;;;16.94;29.54;102025.53;5051919;28;19928;-74
2022/04/18 07:33:29;;;;;;;;;;;;;;;17.01;29.50;102014.50;5052652;28;19921;-75
2022/04/18 07:35:54;;;;;;;;;;;;;;;17.36;29.04;102024.25;5051361;28;19931;-75
2022/04/18 07:41:06;;;;;;;;;;;;;;;16.87;30.31;102023.97;5053789;28;19919;-73
2022/04/18 07:43:34;;;;;;;;;;;;;;;17.43;29.02;102013.22;5053778;28;19905;-73
2022/04/18 07:46:00;;;;;;;;;;;;;;;17.42;29.19;102015.13;5053209;28;20034;-73
2022/04/18 07:48:25;;;;;;;;;;;;;;;17.64;29.25;102012.59;5053241;28;20321;-73
2022/04/18 07:53:34;;;;;;;;;;;;;;;17.37;29.37;102017.75;5053518;28;20276;-73
2022/04/18 07:55:59;;;;;;;;;;;;;;;17.62;28.58;102006.56;5053082;28;19912;-72
2022/04/18 07:58:24;;;;;;;;;;;;;;;17.92;28.57;102019.91;5052940;28;19921;-73
2022/04/18 08:00:50;;;;;;;;;;;;;;;18.06;28.17;102008.44;5053324;28;19970;-72
2022/04/18 08:03:17;;;;;;;;;;;;;;;18.25;27.81;102003.59;5052487;28;20011;-73
2022/04/18 08:05:42;;;;;;;;;;;;;;;18.38;27.28;102003.25;5053123;28;19956;-73
2022/04/18 08:08:07;;;;;;;;;;;;;;;18.88;27.88;102000.50;5053034;28;19936;-75
2022/04/18 08:10:36;;;;;;;;;;;;;;;19.58;26.31;102001.38;5052833;28;19912;-75
2022/04/18 08:13:04;;;;;;;;;;;;;;;18.79;26.80;102004.72;5050001;28;20412;-72
2022/04/18 08:15:30;;;;;;;;;;;;;;;18.67;26.66;101998.56;5052499;28;19970;-71
2022/04/18 08:17:55;;;;;;;;;;;;;;;18.90;27.16;102003.78;5050525;28;19924;-75
2022/04/18 08:20:20;;;;;;;;;;;;;;;18.89;27.04;101999.41;5051888;28;20026;-74
2022/04/18 08:22:46;;;;;;;;;;;;;;;19.05;28.04;101999.34;5052972;28;19957;-74
2022/04/18 08:25:11;;;;;;;;;;;;;;;18.73;27.55;101994.84;5052321;28;20568;-73
2022/04/18 08:27:36;;;;;;;;;;;;;;;19.19;27.10;102002.53;5052097;28;19996;-74
2022/04/18 08:30:02;;;;;;;;;;;;;;;19.28;27.24;101998.28;5051839;28;19924;-74
2022/04/18 08:32:27;;;;;;;;;;;;;;;19.03;26.76;101997.97;5051639;28;19988;-72
2022/04/18 08:34:54;;;;;;;;;;;;;;;19.47;26.38;101999.63;5050873;28;19913;-73
2022/04/18 08:37:20;;;;;;;;;;;;;;;19.44;26.59;102004.78;5053190;28;19923;-73
2022/04/18 08:39:45;;;;;;;;;;;;;;;19.65;25.94;101999.28;5052208;28;20012;-73
2022/04/18 08:42:11;;;;;;;;;;;;;;;19.34;26.70;102001.94;5038125;28;19916;-73
2022/04/18 08:44:37;;;;;;;;;;;;;;;19.59;26.38;102003.03;5052371;28;19947;-74
2022/04/18 08:47:02;;;;;;;;;;;;;;;19.57;26.63;102004.38;5052784;28;19912;-73
2022/04/18 08:52:43;;;;;;;;;;;;;;;20.20;26.70;102004.47;5052409;28;19924;-74
2022/04/18 08:54:58;;;;;;;;;;;;;;;20.53;25.31;101998.72;5052620;28;19916;-73
2022/04/18 08:57:23;;;;;;;;;;;;;;;20.68;25.71;101996.06;5051598;28;19931;-73
2022/04/18 08:59:48;;;;;;;;;;;;;;;20.66;25.92;102000.13;5051344;28;19944;-73
2022/04/18 09:02:14;;;;;;;;;;;;;;;20.45;26.24;101998.34;5051836;28;20373;-75
2022/04/18 09:04:39;;;;;;;;;;;;;;;20.26;25.77;101989.78;5051888;28;20042;-76
2022/04/18 09:07:12;;;;;;;;;;;;;;;20.96;25.88;101989.38;5051535;28;19921;-73
2022/04/18 09:09:38;;;;;;;;;;;;;;;21.08;25.07;101994.66;5051904;28;19917;-74
2022/04/18 09:12:05;;;;;;;;;;;;;;;21.27;25.46;101991.19;5051838;28;19924;-74
2022/04/18 09:14:33;;;;;;;;;;;;;;;21.21;25.14;101989.50;5051864;28;19917;-75
2022/04/18 09:16:58;;;;;;;;;;;;;;;21.29;25.11;101982.69;5054290;28;19924;-74
2022/04/18 09:19:24;;;;;;;;;;;;;;;21.80;24.64;101993.53;5055724;28;19909;-74
2022/04/18 09:21:55;;;;;;;;;;;;;;;21.18;24.68;101991.97;5053433;28;19927;-74
2022/04/18 09:24:24;;;;;;;;;;;;;;;21.48;24.17;101981.13;5053329;28;19917;-74
2022/04/18 09:26:50;;;;;;;;;;;;;;;21.84;23.63;101980.94;5055760;28;20406;-75
2022/04/18 09:29:17;;;;;;;;;;;;;;;21.45;23.43;101971.56;5055614;28;19916;-73
2022/04/18 09:31:42;;;;;;;;;;;;;;;22.26;24.20;101977.94;5055060;28;19921;-74
2022/04/18 09:34:07;;;;;;;;;;;;;;;22.25;23.79;101967.28;5055009;28;20004;-73
2022/04/18 09:36:33;;;;;;;;;;;;;;;22.58;22.86;101969.44;5055301;28;19920;-74
2022/04/18 09:38:58;;;;;;;;;;;;;;;22.09;22.38;101968.38;5056263;28;19943;-73
2022/04/18 09:41:23;;;;;;;;;;;;;;;22.31;22.32;101966.97;5055240;28;19916;-73
2022/04/18 09:43:49;;;;;;;;;;;;;;;22.19;21.95;101962.91;5055573;28;19933;-74
2022/04/18 09:46:15;;;;;;;;;;;;;;;22.74;21.68;101962.00;5054888;28;19917;-73
2022/04/18 09:48:42;;;;;;;;;;;;;;;23.18;21.80;101962.91;5055249;28;20391;-73
2022/04/18 09:51:08;;;;;;;;;;;;;;;22.55;20.85;101961.72;5081994;28;19966;-72
2022/04/18 09:53:34;;;;;;;;;;;;;;;22.26;21.64;101956.03;5054783;28;20482;-74
2022/04/18 09:56:00;;;;;;;;;;;;;;;22.67;21.49;101954.06;5054877;28;19912;-74
2022/04/18 09:58:26;;;;;;;;;;;;;;;23.57;21.30;101949.28;5054924;28;19917;-73
2022/04/18 10:00:52;;;;;;;;;;;;;;;24.02;20.70;101957.19;5054837;28;19917;-73
2022/04/18 10:03:17;;;;;;;;;;;;;;;23.94;19.59;101949.56;5054437;28;19936;-74
2022/04/18 10:05:42;;;;;;;;;;;;;;;22.74;19.94;101951.88;5052473;28;19962;-75
2022/04/18 10:08:08;;;;;;;;;;;;;;;23.09;19.58;101954.47;5052550;28;19909;-74
2022/04/18 10:10:34;;;;;;;;;;;;;;;23.77;18.75;101943.63;5054178;28;19920;-74
2022/04/18 10:12:59;;;;;;;;;;;;;;;23.51;18.54;101943.81;5054696;28;19920;-73
2022/04/18 10:15:26;;;;;;;;;;;;;;;22.74;18.83;101937.34;5054502;28;20323;-73
2022/04/18 10:17:52;;;;;;;;;;;;;;;23.44;18.88;101939.75;5053301;28;20357;-73
2022/04/18 10:20:35;;;;;;;;;;;;;;;23.19;18.96;101945.38;5054483;28;19923;-73
2022/04/18 10:23:25;;;;;;;;;;;;;;;23.83;18.45;101942.50;5053510;28;19915;-75
2022/04/18 10:26:02;;;;;;;;;;;;;;;24.02;17.14;101938.78;4982055;28;19910;-74
2022/04/18 10:28:47;;;;;;;;;;;;;;;23.52;17.46;101936.41;4977235;28;20545;-73
2022/04/18 10:31:15;;;;;;;;;;;;;;;24.30;17.01;101935.22;4972639;28;20310;-74
2022/04/18 10:33:42;;;;;;;;;;;;;;;24.24;17.01;101930.91;4980290;28;19922;-75
2022/04/18 10:36:07;;;;;;;;;;;;;;;23.80;17.17;101938.41;4982692;28;19918;-74
2022/04/18 10:38:44;;;;;;;;;;;;;;;24.37;17.08;101934.91;4989542;28;19960;-75
2022/04/18 10:41:27;;;;;;;;;;;;;;;24.54;16.31;101928.94;4992200;28;19913;-74
2022/04/18 10:44:00;;;;;;;;;;;;;;;24.73;17.09;101927.91;4981631;28;19997;-76
2022/04/18 10:46:26;;;;;;;;;;;;;;;25.49;16.96;101925.00;4969969;28;20009;-75
2022/04/18 10:48:55;;;;;;;;;;;;;;;26.27;16.35;101927.00;4977053;28;20013;-74
2022/04/18 10:51:26;;;;;;;;;;;;;;;26.07;15.13;101922.66;4979512;28;20306;-74
2022/04/18 10:54:03;;;;;;;;;;;;;;;24.72;14.54;101929.03;4969475;28;19921;-74
2022/04/18 10:56:44;;;;;;;;;;;;;;;24.74;13.50;101926.00;4969377;28;19925;-76
2022/04/18 10:59:11;;;;;;;;;;;;;;;25.11;14.18;101915.88;4969554;28;20053;-74
2022/04/18 11:01:37;;;;;;;;;;;;;;;26.22;15.02;101921.59;4970338;28;19910;-74
2022/04/18 11:04:07;;;;;;;;;;;;;;;26.98;12.89;101915.41;5048702;28;19913;-73
2022/04/18 11:06:39;;;;;;;;;;;;;;;26.91;13.28;101922.16;5049379;28;20376;-74
2022/04/18 11:09:09;;;;;;;;;;;;;;;25.88;14.37;101919.13;5049803;28;19921;-75
2022/04/18 11:11:46;;;;;;;;;;;;;;;26.45;14.41;101918.66;5050038;28;20021;-73
2022/04/18 11:14:19;;;;;;;;;;;;;;;27.13;14.53;101917.81;5050226;28;19928;-73
2022/04/18 11:16:44;;;;;;;;;;;;;;;27.39;13.96;101910.63;5047513;28;19927;-73
2022/04/18 11:19:16;;;;;;;;;;;;;;;27.33;15.11;101911.88;5047413;28;19913;-74
2022/04/18 11:21:57;;;;;;;;;;;;;;;27.37;14.41;101902.66;5050402;28;19938;-74
2022/04/18 11:24:31;;;;;;;;;;;;;;;27.57;14.49;101902.19;5049104;28;20107;-73
2022/04/18 11:26:57;;;;;;;;;;;;;;;27.77;14.24;101900.88;5050392;28;20062;-76
2022/04/18 11:29:22;;;;;;;;;;;;;;;27.66;14.24;101897.53;5049976;28;19999;-74
2022/04/18 11:31:47;;;;;;;;;;;;;;;27.80;14.14;101900.22;5051582;28;19928;-73
2022/04/18 11:34:13;;;;;;;;;;;;;;;28.22;13.25;101893.34;5046438;28;19964;-72
2022/04/18 11:36:38;;;;;;;;;;;;;;;28.04;13.37;101889.69;5048922;28;19924;-73
2022/04/18 11:39:07;;;;;;;;;;;;;;;28.12;14.16;101882.56;5049850;28;20004;-75
2022/04/18 11:41:33;;;;;;;;;;;;;;;27.61;13.90;101883.03;5050092;28;20288;-73
2022/04/18 11:43:59;;;;;;;;;;;;;;;28.02;13.85;101880.91;5049013;28;19956;-74
2022/04/18 11:46:28;;;;;;;;;;;;;;;28.06;13.35;101883.84;5049575;28;20006;-73
2022/04/18 11:48:53;;;;;;;;;;;;;;;28.35;12.67;101884.13;5049192;28;19912;-75
2022/04/18 11:51:35;;;;;;;;;;;;;;;28.48;12.30;101883.22;5049867;28;19939;-73
2022/04/18 11:54:02;;;;;;;;;;;;;;;28.69;13.47;101889.81;5049710;28;20465;-72
2022/04/18 11:56:28;;;;;;;;;;;;;;;28.74;13.82;101881.38;5049525;28;20463;-74
2022/04/18 11:58:53;;;;;;;;;;;;;;;29.10;13.66;101881.94;5049608;28;19921;-74
2022/04/18 12:06:49;;;;;;;;;;;;;;;29.16;14.15;101871.53;5048280;28;19962;-74
2022/04/18 12:09:21;;;;;;;;;;;;;;;28.35;13.62;101873.91;5049452;28;19952;-74
2022/04/18 12:11:46;;;;;;;;;;;;;;;28.96;14.91;101874.91;5049748;28;19920;-73
2022/04/18 12:14:11;;;;;;;;;;;;;;;29.50;13.82;101869.56;5049252;28;20438;-73
2022/04/18 12:16:37;;;;;;;;;;;;;;;30.11;14.09;101868.31;5048993;28;20411;-76
2022/04/18 12:19:03;;;;;;;;;;;;;;;29.29;14.10;101863.06;5046012;28;20586;-73
2022/04/18 12:21:28;;;;;;;;;;;;;;;29.39;13.47;101854.44;5046110;28;20019;-75
2022/04/18 12:23:57;;;;;;;;;;;;;;;29.56;12.88;101852.78;5048562;28;19916;-76
2022/04/18 12:26:26;;;;;;;;;;;;;;;29.18;13.56;101850.69;5046994;28;19981;-66
2022/04/18 12:28:57;;;;;;;;;;;;;;;29.49;14.02;101847.72;5052005;28;19921;-69
2022/04/18 12:31:22;;;;;;;;;;;;;;;29.57;13.69;101846.91;5048971;28;19966;-67
2022/04/18 12:33:48;;;;;;;;;;;;;;;29.36;12.20;101837.66;5048979;28;20352;-68
2022/04/18 12:36:26;;;;;;;;;;;;;;;29.50;13.50;101841.06;5048875;28;19920;-76
2022/04/18 12:38:52;;;;;;;;;;;;;;;29.57;13.37;101840.53;5048990;28;19917;-71
2022/04/18 12:41:27;;;;;;;;;;;;;;;30.03;14.38;101833.13;5047141;28;19921;-72
2022/04/18 12:43:53;;;;;;;;;;;;;;;30.11;13.66;101831.47;5049105;28;19905;-70
2022/04/18 12:46:22;;;;;;;;;;;;;;;29.99;13.22;101832.19;5048789;28;19924;-71
2022/04/18 12:48:51;;;;;;;;;;;;;;;29.07;13.02;101827.19;5047056;28;20007;-74
2022/04/18 12:51:17;;;;;;;;;;;;;;;29.09;12.59;101829.66;5081962;28;19939;-76
2022/04/18 12:53:45;;;;;;;;;;;;;;;29.63;12.48;101826.19;5052915;28;19913;-74